METAR stanice u blizini

 

LYBE - Beograd / Surčin, Srbija
Ažurirano: 19/06/2024 10:30
Vedro
Vedro
 Pravac vetra ZJZ
Vetar: ZJZ 11 km/h
Temperatura: 31°C
Heat Index: 32°C
Tačka rose: 17°C
Vlažnost: 43%
Pritisak: 1017 hPa
Pregled: Vedro
Vidljivost: greater than 10 km
2024/06/19 08:30 LYBE 190830Z 25006KT 160V330 CAVOK 31/17 Q1017 NOSIG
LYBT - Beograd / Batajnica, Srbija
Ažurirano: 19/06/2024 10:30
Vedro
Vedro
 Pravac vetra Z
Vetar: Z 7 km/h
Temperatura: 31°C
Heat Index: 33°C
Tačka rose: 19°C
Vlažnost: 49%
Pritisak: 1017 hPa
Pregled: Vedro
Vidljivost: greater than 10 km
2024/06/19 08:30 LYBT 190830Z 26004KT 210V320 CAVOK 31/19 Q1017 NOSIG
LYVR - Vršac, Srbija
Ažurirano: 19/06/2024 10:30
Vedro
Vedro
 Pravac vetra J
Vetar: J 15 km/h
Temperatura: 32°C
Tačka rose: 16°C
Vlažnost: 38%
Pritisak: 1016 hPa
Pregled: Vedro
Vidljivost: greater than 10 km
2024/06/19 08:30 LYVR 190830Z 17008KT 140V220 CAVOK 32/16 Q1016 NOSIG
 
LYKV - Lađevci, Srbija
Ažurirano: 19/06/2024 10:00
Vedro
Vedro
 Pravac vetra JZ
Vetar: JZ 4 km/h
Temperatura: 28°C
Heat Index: 29°C
Tačka rose: 18°C
Vlažnost: 55%
Pritisak: 1018 hPa
Pregled: Vedro
Vidljivost: greater than 10 km
2024/06/19 08:00 LYKV 190800Z 22002KT CAVOK 28/18 Q1018 NOSIG
LYNI - Niš, Srbija
Ažurirano: 19/06/2024 10:30
Vedro
Vedro
 Pravac vetra varies
Vetar: varies 2 km/h
Temperatura: 30°C
Heat Index: 31°C
Tačka rose: 19°C
Vlažnost: 52%
Pritisak: 1019 hPa
Pregled: Vedro
Vidljivost: greater than 10 km
2024/06/19 08:30 LYNI 190830Z VRB01KT CAVOK 30/19 Q1019 NOSIG
BKPR - Priština, Srbija
Ažurirano: 19/06/2024 10:30
Vedro
Vedro
 Pravac vetra varies
Vetar: varies 6 km/h
Temperatura: 28°C
Heat Index: 29°C
Tačka rose: 18°C
Vlažnost: 55%
Pritisak: 1020 hPa
Pregled: Vedro
Vidljivost: greater than 10 km
2024/06/19 08:30 BKPR 190830Z VRB03KT CAVOK 28/18 Q1020 NOSIG
 
LHPP - Pecs / Pogany, Hungary
Ažurirano: 19/06/2024 10:15
Vedro
Vedro
 Pravac vetra JJZ
Vetar: JJZ 19 km/h
Temperatura: 28°C
Heat Index: 28°C
Tačka rose: 16°C
Vlažnost: 48%
Pritisak: 1016 hPa
Pregled: Vedro
Vidljivost: greater than 10 km
2024/06/19 08:15 LHPP 190815Z AUTO 21010KT 160V260 CAVOK 28/16 Q1016
LHUD - Szeged, Hungary
Ažurirano: 04/07/2019 01:45
NOT Current
Vedro
Vedro
 Pravac vetra S
Vetar: S 7 km/h
Temperatura: 18°C
Tačka rose: 13°C
Vlažnost: 73%
Pritisak: 1019 hPa
Pregled: Vedro
Vidljivost: greater than 10 km
2019/07/03 23:45 LHUD 032345Z 35004KT CAVOK 18/13 Q1019
LRTR - Timisoara, Romania
Ažurirano: 19/06/2024 10:00
Vedro
Vedro
 Pravac vetra JI
Vetar: JI 13 km/h
Temperatura: 29°C
Heat Index: 29°C
Tačka rose: 17°C
Vlažnost: 48%
Pritisak: 1017 hPa
Pregled: Vedro
Vidljivost: greater than 10 km
2024/06/19 08:00 LRTR 190800Z 13007KT 100V160 CAVOK 29/17 Q1017
 
LRCV - Craiova, Romania
Ažurirano: 19/06/2024 10:00
Vedro
Vedro
 Pravac vetra varies
Vetar: varies 6 km/h
Temperatura: 30°C
Heat Index: 31°C
Tačka rose: 17°C
Vlažnost: 46%
Pritisak: 1018 hPa
Pregled: Vedro
Vidljivost: greater than 10 km
2024/06/19 08:00 LRCV 190800Z VRB03KT CAVOK 30/17 Q1018
LBSF - Sofia, Bulgaria
Ažurirano: 19/06/2024 10:30
Vedro
Vedro
 Pravac vetra varies
Vetar: varies 6 km/h
Temperatura: 28°C
Heat Index: 28°C
Tačka rose: 16°C
Vlažnost: 48%
Pritisak: 1021 hPa
Pregled: Vedro
Vidljivost: greater than 10 km
2024/06/19 08:30 LBSF 190830Z VRB03KT CAVOK 28/16 Q1021 NOSIG
LWSK - Skoplje, Makedonija
Ažurirano: 19/06/2024 10:20
Vedro
Vedro
 Pravac vetra varies
Vetar: varies 6 km/h
Temperatura: 31°C
Heat Index: 33°C
Tačka rose: 19°C
Vlažnost: 49%
Pritisak: 1018 hPa
Pregled: Vedro
Vidljivost: greater than 10 km
2024/06/19 08:20 LWSK 190820Z VRB03KT CAVOK 31/19 Q1018 NOSIG
 
LYPG - Podgorica, Crna Gora
Ažurirano: 19/06/2024 10:30
Vedro
Vedro
 Pravac vetra JZ
Vetar: JZ 6 km/h
Temperatura: 31°C
Tačka rose: 15°C
Vlažnost: 38%
Pritisak: 1017 hPa
Pregled: Vedro
Vidljivost: greater than 10 km
2024/06/19 08:30 LYPG 190830Z 23003KT 120V270 CAVOK 31/15 Q1017 NOSIG
LQSA - Sarajevo, Bosna i Hercegovina
Ažurirano: 19/06/2024 10:30
Vedro
Vedro
 Pravac vetra varies
Vetar: varies 2 km/h
Temperatura: 25°C
Tačka rose: 13°C
Vlažnost: 47%
Pritisak: 1020 hPa
Pregled: Vedro
Vidljivost: greater than 10 km
2024/06/19 08:30 LQSA 190830Z VRB01KT CAVOK 25/13 Q1020 NOSIG
LDOS - Osijek, Hrvatksa
Ažurirano: 19/06/2024 10:30
Vedro
Vedro
 Pravac vetra JZ
Vetar: JZ 17 km/h
Temperatura: 29°C
Heat Index: 31°C
Tačka rose: 20°C
Vlažnost: 58%
Pritisak: 1016 hPa
Pregled: Vedro
Vidljivost: greater than 10 km
2024/06/19 08:30 LDOS 190830Z 22009KT CAVOK 29/20 Q1016